sensor_id;sensor_type;location;lat;lon;timestamp;P1;durP1;ratioP1;P2;durP2;ratioP2
59876;SDS011;45749;51.140;17.184;2022-07-05T00:02:22;9.20;;;7.40;;
59876;SDS011;45749;51.140;17.184;2022-07-05T00:04:48;6.95;;;6.28;;
59876;SDS011;45749;51.140;17.184;2022-07-05T00:07:16;7.42;;;6.72;;
59876;SDS011;45749;51.140;17.184;2022-07-05T00:09:43;7.97;;;7.17;;
59876;SDS011;45749;51.140;17.184;2022-07-05T00:12:16;9.43;;;7.37;;
59876;SDS011;45749;51.140;17.184;2022-07-05T00:14:44;7.97;;;7.17;;
59876;SDS011;45749;51.140;17.184;2022-07-05T00:17:11;7.55;;;6.78;;
59876;SDS011;45749;51.140;17.184;2022-07-05T00:19:38;9.58;;;6.30;;
59876;SDS011;45749;51.140;17.184;2022-07-05T00:22:04;9.50;;;6.97;;
59876;SDS011;45749;51.140;17.184;2022-07-05T00:24:31;7.83;;;7.03;;
59876;SDS011;45749;51.140;17.184;2022-07-05T00:26:57;10.63;;;7.80;;
59876;SDS011;45749;51.140;17.184;2022-07-05T00:29:23;16.00;;;8.05;;
59876;SDS011;45749;51.140;17.184;2022-07-05T00:31:49;11.15;;;7.50;;
59876;SDS011;45749;51.140;17.184;2022-07-05T00:34:15;10.15;;;6.53;;
59876;SDS011;45749;51.140;17.184;2022-07-05T00:36:41;14.50;;;7.12;;
59876;SDS011;45749;51.140;17.184;2022-07-05T00:39:07;12.68;;;7.17;;
59876;SDS011;45749;51.140;17.184;2022-07-05T00:41:34;10.85;;;6.85;;
59876;SDS011;45749;51.140;17.184;2022-07-05T00:44:02;9.10;;;6.25;;
59876;SDS011;45749;51.140;17.184;2022-07-05T00:46:34;11.80;;;6.33;;
59876;SDS011;45749;51.140;17.184;2022-07-05T00:49:02;7.72;;;5.90;;
59876;SDS011;45749;51.140;17.184;2022-07-05T00:51:33;9.88;;;6.10;;
59876;SDS011;45749;51.140;17.184;2022-07-05T00:54:00;12.13;;;6.37;;
59876;SDS011;45749;51.140;17.184;2022-07-05T00:56:27;8.40;;;5.75;;
59876;SDS011;45749;51.140;17.184;2022-07-05T00:58:53;13.83;;;6.17;;
59876;SDS011;45749;51.140;17.184;2022-07-05T01:01:19;10.78;;;6.25;;
59876;SDS011;45749;51.140;17.184;2022-07-05T01:03:46;9.50;;;6.10;;
59876;SDS011;45749;51.140;17.184;2022-07-05T01:06:12;12.58;;;6.17;;
59876;SDS011;45749;51.140;17.184;2022-07-05T01:08:40;14.33;;;6.25;;
59876;SDS011;45749;51.140;17.184;2022-07-05T01:11:08;8.85;;;5.92;;
59876;SDS011;45749;51.140;17.184;2022-07-05T01:13:36;12.33;;;6.30;;
59876;SDS011;45749;51.140;17.184;2022-07-05T01:16:03;9.20;;;6.17;;
59876;SDS011;45749;51.140;17.184;2022-07-05T01:18:30;17.30;;;6.62;;
59876;SDS011;45749;51.140;17.184;2022-07-05T01:20:58;7.50;;;6.70;;
59876;SDS011;45749;51.140;17.184;2022-07-05T01:23:28;9.35;;;5.70;;
59876;SDS011;45749;51.140;17.184;2022-07-05T01:25:57;9.55;;;5.58;;
59876;SDS011;45749;51.140;17.184;2022-07-05T01:28:26;10.25;;;6.33;;
59876;SDS011;45749;51.140;17.184;2022-07-05T01:30:53;8.85;;;6.22;;
59876;SDS011;45749;51.140;17.184;2022-07-05T01:33:19;11.33;;;6.70;;
59876;SDS011;45749;51.140;17.184;2022-07-05T01:35:54;8.30;;;5.72;;
59876;SDS011;45749;51.140;17.184;2022-07-05T01:38:21;7.78;;;6.22;;
59876;SDS011;45749;51.140;17.184;2022-07-05T01:40:48;7.87;;;5.85;;
59876;SDS011;45749;51.140;17.184;2022-07-05T01:43:20;8.68;;;6.40;;
59876;SDS011;45749;51.140;17.184;2022-07-05T01:45:48;8.08;;;6.17;;
59876;SDS011;45749;51.140;17.184;2022-07-05T01:48:16;9.60;;;6.70;;
59876;SDS011;45749;51.140;17.184;2022-07-05T01:50:51;8.58;;;6.37;;
59876;SDS011;45749;51.140;17.184;2022-07-05T01:53:27;7.28;;;6.58;;
59876;SDS011;45749;51.140;17.184;2022-07-05T01:55:58;9.53;;;6.50;;
59876;SDS011;45749;51.140;17.184;2022-07-05T01:58:27;11.63;;;7.28;;
59876;SDS011;45749;51.140;17.184;2022-07-05T02:00:54;9.55;;;6.62;;
59876;SDS011;45749;51.140;17.184;2022-07-05T02:03:22;9.15;;;7.10;;
59876;SDS011;45749;51.140;17.184;2022-07-05T02:05:49;7.80;;;6.83;;
59876;SDS011;45749;51.140;17.184;2022-07-05T02:08:16;13.13;;;8.08;;
59876;SDS011;45749;51.140;17.184;2022-07-05T02:10:43;10.18;;;6.85;;
59876;SDS011;45749;51.140;17.184;2022-07-05T02:13:10;8.53;;;6.78;;
59876;SDS011;45749;51.140;17.184;2022-07-05T02:15:37;7.78;;;6.65;;
59876;SDS011;45749;51.140;17.184;2022-07-05T02:18:06;8.88;;;6.92;;
59876;SDS011;45749;51.140;17.184;2022-07-05T02:20:34;7.60;;;6.85;;
59876;SDS011;45749;51.140;17.184;2022-07-05T02:23:03;9.48;;;6.70;;
59876;SDS011;45749;51.140;17.184;2022-07-05T02:25:28;9.05;;;7.70;;
59876;SDS011;45749;51.140;17.184;2022-07-05T02:27:54;8.95;;;6.97;;
59876;SDS011;45749;51.140;17.184;2022-07-05T02:30:21;13.03;;;7.20;;
59876;SDS011;45749;51.140;17.184;2022-07-05T02:32:47;12.90;;;7.65;;
59876;SDS011;45749;51.140;17.184;2022-07-05T02:35:13;8.33;;;7.25;;
59876;SDS011;45749;51.140;17.184;2022-07-05T02:37:40;7.67;;;6.97;;
59876;SDS011;45749;51.140;17.184;2022-07-05T02:40:07;11.57;;;6.60;;
59876;SDS011;45749;51.140;17.184;2022-07-05T02:42:36;8.73;;;7.80;;
59876;SDS011;45749;51.140;17.184;2022-07-05T02:45:03;8.80;;;7.95;;
59876;SDS011;45749;51.140;17.184;2022-07-05T02:47:31;6.87;;;6.17;;
59876;SDS011;45749;51.140;17.184;2022-07-05T02:49:58;9.78;;;7.72;;
59876;SDS011;45749;51.140;17.184;2022-07-05T02:52:29;8.50;;;6.97;;
59876;SDS011;45749;51.140;17.184;2022-07-05T02:54:55;12.98;;;7.75;;
59876;SDS011;45749;51.140;17.184;2022-07-05T02:57:21;13.55;;;8.40;;
59876;SDS011;45749;51.140;17.184;2022-07-05T02:59:48;9.93;;;8.70;;
59876;SDS011;45749;51.140;17.184;2022-07-05T03:02:13;9.85;;;7.35;;
59876;SDS011;45749;51.140;17.184;2022-07-05T03:04:39;12.05;;;8.43;;
59876;SDS011;45749;51.140;17.184;2022-07-05T03:07:05;10.58;;;7.20;;
59876;SDS011;45749;51.140;17.184;2022-07-05T03:09:31;15.18;;;7.90;;
59876;SDS011;45749;51.140;17.184;2022-07-05T03:11:57;10.05;;;7.47;;
59876;SDS011;45749;51.140;17.184;2022-07-05T03:14:23;11.03;;;7.40;;
59876;SDS011;45749;51.140;17.184;2022-07-05T03:16:50;9.30;;;7.22;;
59876;SDS011;45749;51.140;17.184;2022-07-05T03:19:16;9.35;;;7.20;;
59876;SDS011;45749;51.140;17.184;2022-07-05T03:21:42;10.75;;;7.62;;
59876;SDS011;45749;51.140;17.184;2022-07-05T03:24:09;9.00;;;8.10;;
59876;SDS011;45749;51.140;17.184;2022-07-05T03:26:35;10.40;;;7.78;;
59876;SDS011;45749;51.140;17.184;2022-07-05T03:29:01;10.28;;;7.75;;
59876;SDS011;45749;51.140;17.184;2022-07-05T03:31:28;8.13;;;6.87;;
59876;SDS011;45749;51.140;17.184;2022-07-05T03:33:53;16.57;;;8.78;;
59876;SDS011;45749;51.140;17.184;2022-07-05T03:36:21;11.35;;;8.48;;
59876;SDS011;45749;51.140;17.184;2022-07-05T03:38:48;9.58;;;8.23;;
59876;SDS011;45749;51.140;17.184;2022-07-05T03:41:14;12.35;;;7.67;;
59876;SDS011;45749;51.140;17.184;2022-07-05T03:43:40;13.25;;;9.30;;
59876;SDS011;45749;51.140;17.184;2022-07-05T03:46:06;10.28;;;7.83;;
59876;SDS011;45749;51.140;17.184;2022-07-05T03:48:32;11.85;;;8.40;;
59876;SDS011;45749;51.140;17.184;2022-07-05T03:50:59;12.00;;;8.15;;
59876;SDS011;45749;51.140;17.184;2022-07-05T03:53:25;10.08;;;8.25;;
59876;SDS011;45749;51.140;17.184;2022-07-05T03:55:51;10.98;;;8.25;;
59876;SDS011;45749;51.140;17.184;2022-07-05T03:58:17;9.03;;;7.40;;
59876;SDS011;45749;51.140;17.184;2022-07-05T04:00:44;8.63;;;7.80;;
59876;SDS011;45749;51.140;17.184;2022-07-05T04:03:10;9.03;;;8.13;;
59876;SDS011;45749;51.140;17.184;2022-07-05T04:05:36;11.05;;;7.80;;
59876;SDS011;45749;51.140;17.184;2022-07-05T04:08:02;8.85;;;7.95;;
59876;SDS011;45749;51.140;17.184;2022-07-05T04:10:28;8.83;;;8.03;;
59876;SDS011;45749;51.140;17.184;2022-07-05T04:12:54;8.55;;;7.75;;
59876;SDS011;45749;51.140;17.184;2022-07-05T04:15:20;9.88;;;8.85;;
59876;SDS011;45749;51.140;17.184;2022-07-05T04:17:52;9.70;;;7.42;;
59876;SDS011;45749;51.140;17.184;2022-07-05T04:20:19;7.90;;;7.08;;
59876;SDS011;45749;51.140;17.184;2022-07-05T04:22:47;7.95;;;7.15;;
59876;SDS011;45749;51.140;17.184;2022-07-05T04:25:15;12.82;;;8.03;;
59876;SDS011;45749;51.140;17.184;2022-07-05T04:27:47;9.33;;;8.18;;
59876;SDS011;45749;51.140;17.184;2022-07-05T04:30:13;11.68;;;7.83;;
59876;SDS011;45749;51.140;17.184;2022-07-05T04:32:40;9.73;;;8.03;;
59876;SDS011;45749;51.140;17.184;2022-07-05T04:35:07;12.78;;;8.28;;
59876;SDS011;45749;51.140;17.184;2022-07-05T04:37:34;10.03;;;8.13;;
59876;SDS011;45749;51.140;17.184;2022-07-05T04:40:00;8.75;;;8.05;;
59876;SDS011;45749;51.140;17.184;2022-07-05T04:42:28;9.23;;;7.45;;
59876;SDS011;45749;51.140;17.184;2022-07-05T04:44:54;9.35;;;8.00;;
59876;SDS011;45749;51.140;17.184;2022-07-05T04:47:20;11.57;;;7.78;;
59876;SDS011;45749;51.140;17.184;2022-07-05T04:49:46;8.73;;;7.90;;
59876;SDS011;45749;51.140;17.184;2022-07-05T04:52:12;8.68;;;7.78;;
59876;SDS011;45749;51.140;17.184;2022-07-05T04:54:38;7.92;;;7.30;;
59876;SDS011;45749;51.140;17.184;2022-07-05T04:57:04;9.23;;;7.28;;
59876;SDS011;45749;51.140;17.184;2022-07-05T04:59:30;8.50;;;7.75;;
59876;SDS011;45749;51.140;17.184;2022-07-05T05:01:56;9.88;;;8.15;;
59876;SDS011;45749;51.140;17.184;2022-07-05T05:04:22;10.63;;;7.65;;
59876;SDS011;45749;51.140;17.184;2022-07-05T05:06:48;9.63;;;8.63;;
59876;SDS011;45749;51.140;17.184;2022-07-05T05:09:14;9.30;;;8.08;;
59876;SDS011;45749;51.140;17.184;2022-07-05T05:11:40;9.65;;;8.23;;
59876;SDS011;45749;51.140;17.184;2022-07-05T05:14:06;9.85;;;8.60;;
59876;SDS011;45749;51.140;17.184;2022-07-05T05:16:32;10.93;;;9.83;;
59876;SDS011;45749;51.140;17.184;2022-07-05T05:18:58;9.08;;;8.38;;
59876;SDS011;45749;51.140;17.184;2022-07-05T05:21:24;8.53;;;7.53;;
59876;SDS011;45749;51.140;17.184;2022-07-05T05:23:50;8.60;;;7.75;;
59876;SDS011;45749;51.140;17.184;2022-07-05T05:26:16;10.60;;;7.92;;
59876;SDS011;45749;51.140;17.184;2022-07-05T05:28:42;8.80;;;8.00;;
59876;SDS011;45749;51.140;17.184;2022-07-05T05:31:08;10.48;;;7.90;;
59876;SDS011;45749;51.140;17.184;2022-07-05T05:33:34;9.43;;;7.28;;
59876;SDS011;45749;51.140;17.184;2022-07-05T05:36:01;8.30;;;7.20;;
59876;SDS011;45749;51.140;17.184;2022-07-05T05:38:27;9.80;;;7.78;;
59876;SDS011;45749;51.140;17.184;2022-07-05T05:40:53;8.83;;;7.92;;
59876;SDS011;45749;51.140;17.184;2022-07-05T05:43:19;7.78;;;7.17;;
59876;SDS011;45749;51.140;17.184;2022-07-05T05:45:45;7.47;;;6.53;;
59876;SDS011;45749;51.140;17.184;2022-07-05T05:48:11;7.40;;;6.70;;
59876;SDS011;45749;51.140;17.184;2022-07-05T05:50:38;8.05;;;7.35;;
59876;SDS011;45749;51.140;17.184;2022-07-05T05:53:04;8.20;;;7.40;;
59876;SDS011;45749;51.140;17.184;2022-07-05T05:55:31;11.70;;;8.23;;
59876;SDS011;45749;51.140;17.184;2022-07-05T06:00:51;7.42;;;6.72;;
59876;SDS011;45749;51.140;17.184;2022-07-05T06:03:19;7.65;;;6.90;;
59876;SDS011;45749;51.140;17.184;2022-07-05T06:05:46;9.68;;;6.70;;
59876;SDS011;45749;51.140;17.184;2022-07-05T06:08:13;8.38;;;7.58;;
59876;SDS011;45749;51.140;17.184;2022-07-05T06:10:40;7.53;;;6.92;;
59876;SDS011;45749;51.140;17.184;2022-07-05T06:13:07;9.20;;;7.58;;
59876;SDS011;45749;51.140;17.184;2022-07-05T06:15:34;9.48;;;7.47;;
59876;SDS011;45749;51.140;17.184;2022-07-05T06:18:02;7.47;;;6.80;;
59876;SDS011;45749;51.140;17.184;2022-07-05T06:20:29;9.35;;;7.50;;
59876;SDS011;45749;51.140;17.184;2022-07-05T06:22:58;8.83;;;8.03;;
59876;SDS011;45749;51.140;17.184;2022-07-05T06:25:26;10.60;;;7.60;;
59876;SDS011;45749;51.140;17.184;2022-07-05T06:27:55;8.38;;;7.45;;
59876;SDS011;45749;51.140;17.184;2022-07-05T06:30:30;8.83;;;8.03;;
59876;SDS011;45749;51.140;17.184;2022-07-05T06:32:58;9.08;;;7.30;;
59876;SDS011;45749;51.140;17.184;2022-07-05T06:35:24;8.88;;;7.75;;
59876;SDS011;45749;51.140;17.184;2022-07-05T06:37:52;8.40;;;7.33;;
59876;SDS011;45749;51.140;17.184;2022-07-05T06:40:31;7.85;;;7.03;;
59876;SDS011;45749;51.140;17.184;2022-07-05T06:43:01;7.08;;;6.45;;
59876;SDS011;45749;51.140;17.184;2022-07-05T06:45:32;8.48;;;7.78;;
59876;SDS011;45749;51.140;17.184;2022-07-05T06:48:00;7.00;;;6.35;;
59876;SDS011;45749;51.140;17.184;2022-07-05T06:53:00;6.83;;;6.20;;
59876;SDS011;45749;51.140;17.184;2022-07-05T06:55:27;7.55;;;6.78;;
59876;SDS011;45749;51.140;17.184;2022-07-05T07:00:28;8.38;;;6.10;;
59876;SDS011;45749;51.140;17.184;2022-07-05T07:02:54;7.20;;;6.05;;
59876;SDS011;45749;51.140;17.184;2022-07-05T07:05:21;7.22;;;6.62;;
59876;SDS011;45749;51.140;17.184;2022-07-05T07:07:47;7.60;;;6.80;;
59876;SDS011;45749;51.140;17.184;2022-07-05T07:10:32;7.35;;;6.60;;
59876;SDS011;45749;51.140;17.184;2022-07-05T07:12:59;8.90;;;7.78;;
59876;SDS011;45749;51.140;17.184;2022-07-05T07:15:26;9.88;;;7.40;;
59876;SDS011;45749;51.140;17.184;2022-07-05T07:17:53;10.88;;;7.78;;
59876;SDS011;45749;51.140;17.184;2022-07-05T07:20:19;8.50;;;6.92;;
59876;SDS011;45749;51.140;17.184;2022-07-05T07:22:45;9.35;;;8.40;;
59876;SDS011;45749;51.140;17.184;2022-07-05T07:25:11;7.90;;;7.03;;
59876;SDS011;45749;51.140;17.184;2022-07-05T07:27:47;8.35;;;7.65;;
59876;SDS011;45749;51.140;17.184;2022-07-05T07:30:17;8.75;;;7.87;;
59876;SDS011;45749;51.140;17.184;2022-07-05T07:32:47;7.90;;;7.12;;
59876;SDS011;45749;51.140;17.184;2022-07-05T07:35:15;7.95;;;7.25;;
59876;SDS011;45749;51.140;17.184;2022-07-05T07:37:41;7.33;;;6.72;;
59876;SDS011;45749;51.140;17.184;2022-07-05T07:40:07;9.03;;;7.65;;
59876;SDS011;45749;51.140;17.184;2022-07-05T07:42:34;9.23;;;7.65;;
59876;SDS011;45749;51.140;17.184;2022-07-05T07:45:01;7.87;;;7.17;;
59876;SDS011;45749;51.140;17.184;2022-07-05T07:47:35;8.55;;;7.75;;
59876;SDS011;45749;51.140;17.184;2022-07-05T07:50:02;9.00;;;8.20;;
59876;SDS011;45749;51.140;17.184;2022-07-05T07:52:30;7.90;;;7.10;;
59876;SDS011;45749;51.140;17.184;2022-07-05T07:54:58;8.23;;;7.53;;
59876;SDS011;45749;51.140;17.184;2022-07-05T07:57:26;9.50;;;8.58;;
59876;SDS011;45749;51.140;17.184;2022-07-05T07:59:52;7.97;;;7.30;;
59876;SDS011;45749;51.140;17.184;2022-07-05T08:02:18;9.25;;;8.43;;
59876;SDS011;45749;51.140;17.184;2022-07-05T08:04:46;8.18;;;7.47;;
59876;SDS011;45749;51.140;17.184;2022-07-05T08:07:13;8.75;;;7.85;;
59876;SDS011;45749;51.140;17.184;2022-07-05T08:09:39;8.13;;;7.53;;
59876;SDS011;45749;51.140;17.184;2022-07-05T08:12:06;8.38;;;7.47;;
59876;SDS011;45749;51.140;17.184;2022-07-05T08:14:33;8.55;;;7.83;;
59876;SDS011;45749;51.140;17.184;2022-07-05T08:16:59;9.13;;;8.23;;
59876;SDS011;45749;51.140;17.184;2022-07-05T08:19:25;7.87;;;7.17;;
59876;SDS011;45749;51.140;17.184;2022-07-05T08:22:10;7.90;;;7.10;;
59876;SDS011;45749;51.140;17.184;2022-07-05T08:24:40;9.45;;;7.22;;
59876;SDS011;45749;51.140;17.184;2022-07-05T08:27:06;8.70;;;7.90;;
59876;SDS011;45749;51.140;17.184;2022-07-05T08:29:33;7.80;;;7.20;;
59876;SDS011;45749;51.140;17.184;2022-07-05T08:31:59;8.50;;;7.42;;
59876;SDS011;45749;51.140;17.184;2022-07-05T08:34:25;8.45;;;7.67;;
59876;SDS011;45749;51.140;17.184;2022-07-05T08:36:51;9.53;;;8.63;;
59876;SDS011;45749;51.140;17.184;2022-07-05T08:39:17;9.43;;;7.87;;
59876;SDS011;45749;51.140;17.184;2022-07-05T08:41:47;8.68;;;7.95;;
59876;SDS011;45749;51.140;17.184;2022-07-05T08:44:16;7.87;;;7.17;;
59876;SDS011;45749;51.140;17.184;2022-07-05T08:46:45;9.30;;;8.38;;
59876;SDS011;45749;51.140;17.184;2022-07-05T08:49:15;8.38;;;7.62;;
59876;SDS011;45749;51.140;17.184;2022-07-05T08:51:52;9.20;;;8.40;;
59876;SDS011;45749;51.140;17.184;2022-07-05T08:54:19;7.25;;;6.65;;
59876;SDS011;45749;51.140;17.184;2022-07-05T08:56:49;7.58;;;6.87;;
59876;SDS011;45749;51.140;17.184;2022-07-05T08:59:16;8.03;;;7.35;;
59876;SDS011;45749;51.140;17.184;2022-07-05T09:01:44;8.23;;;7.12;;
59876;SDS011;45749;51.140;17.184;2022-07-05T09:04:11;6.70;;;6.03;;
59876;SDS011;45749;51.140;17.184;2022-07-05T09:06:39;5.62;;;4.97;;
59876;SDS011;45749;51.140;17.184;2022-07-05T09:09:06;5.33;;;4.83;;
59876;SDS011;45749;51.140;17.184;2022-07-05T09:11:37;5.60;;;4.62;;
59876;SDS011;45749;51.140;17.184;2022-07-05T09:14:07;5.40;;;4.33;;
59876;SDS011;45749;51.140;17.184;2022-07-05T09:16:49;4.42;;;4.03;;
59876;SDS011;45749;51.140;17.184;2022-07-05T09:19:15;5.85;;;3.95;;
59876;SDS011;45749;51.140;17.184;2022-07-05T09:21:42;6.03;;;4.42;;
59876;SDS011;45749;51.140;17.184;2022-07-05T09:24:09;9.48;;;4.25;;
59876;SDS011;45749;51.140;17.184;2022-07-05T09:29:15;6.42;;;4.08;;
59876;SDS011;45749;51.140;17.184;2022-07-05T09:31:45;4.70;;;4.28;;
59876;SDS011;45749;51.140;17.184;2022-07-05T09:34:16;10.05;;;4.12;;
59876;SDS011;45749;51.140;17.184;2022-07-05T09:36:47;6.50;;;4.37;;
59876;SDS011;45749;51.140;17.184;2022-07-05T09:39:34;4.20;;;3.80;;
59876;SDS011;45749;51.140;17.184;2022-07-05T09:44:52;4.30;;;3.65;;
59876;SDS011;45749;51.140;17.184;2022-07-05T09:47:21;5.92;;;3.83;;
59876;SDS011;45749;51.140;17.184;2022-07-05T09:49:51;5.87;;;3.60;;
59876;SDS011;45749;51.140;17.184;2022-07-05T09:52:32;3.52;;;3.05;;
59876;SDS011;45749;51.140;17.184;2022-07-05T09:57:31;3.65;;;2.80;;
59876;SDS011;45749;51.140;17.184;2022-07-05T09:59:59;5.10;;;2.72;;
59876;SDS011;45749;51.140;17.184;2022-07-05T10:02:41;5.30;;;3.30;;
59876;SDS011;45749;51.140;17.184;2022-07-05T10:05:19;5.03;;;2.80;;
59876;SDS011;45749;51.140;17.184;2022-07-05T10:07:57;5.25;;;4.37;;
59876;SDS011;45749;51.140;17.184;2022-07-05T10:10:28;4.47;;;3.02;;
59876;SDS011;45749;51.140;17.184;2022-07-05T10:12:59;2.87;;;2.65;;
59876;SDS011;45749;51.140;17.184;2022-07-05T10:15:31;3.07;;;2.73;;
59876;SDS011;45749;51.140;17.184;2022-07-05T10:18:00;3.87;;;2.87;;
59876;SDS011;45749;51.140;17.184;2022-07-05T10:20:43;3.42;;;3.08;;
59876;SDS011;45749;51.140;17.184;2022-07-05T10:23:11;3.70;;;2.52;;
59876;SDS011;45749;51.140;17.184;2022-07-05T10:25:42;3.65;;;3.05;;
59876;SDS011;45749;51.140;17.184;2022-07-05T10:28:15;3.25;;;2.52;;
59876;SDS011;45749;51.140;17.184;2022-07-05T10:30:46;3.37;;;2.50;;
59876;SDS011;45749;51.140;17.184;2022-07-05T10:33:15;4.20;;;3.35;;
59876;SDS011;45749;51.140;17.184;2022-07-05T10:35:46;3.60;;;3.30;;
59876;SDS011;45749;51.140;17.184;2022-07-05T10:38:12;3.70;;;3.40;;
59876;SDS011;45749;51.140;17.184;2022-07-05T10:40:40;4.70;;;3.90;;
59876;SDS011;45749;51.140;17.184;2022-07-05T10:43:08;4.83;;;3.85;;
59876;SDS011;45749;51.140;17.184;2022-07-05T10:45:38;4.50;;;4.10;;
59876;SDS011;45749;51.140;17.184;2022-07-05T10:53:29;5.83;;;4.72;;
59876;SDS011;45749;51.140;17.184;2022-07-05T10:58:38;6.75;;;4.35;;
59876;SDS011;45749;51.140;17.184;2022-07-05T11:03:50;4.37;;;3.62;;
59876;SDS011;45749;51.140;17.184;2022-07-05T11:06:43;5.42;;;3.45;;
59876;SDS011;45749;51.140;17.184;2022-07-05T11:22:34;2.70;;;2.50;;
59876;SDS011;45749;51.140;17.184;2022-07-05T11:25:04;3.55;;;3.02;;
59876;SDS011;45749;51.140;17.184;2022-07-05T11:27:32;4.42;;;3.27;;
59876;SDS011;45749;51.140;17.184;2022-07-05T11:29:59;3.70;;;2.92;;
59876;SDS011;45749;51.140;17.184;2022-07-05T11:35:11;4.50;;;3.20;;
59876;SDS011;45749;51.140;17.184;2022-07-05T11:37:56;3.27;;;3.02;;
59876;SDS011;45749;51.140;17.184;2022-07-05T11:42:52;3.67;;;2.87;;
59876;SDS011;45749;51.140;17.184;2022-07-05T11:45:18;3.17;;;2.80;;
59876;SDS011;45749;51.140;17.184;2022-07-05T11:47:44;3.77;;;3.05;;
59876;SDS011;45749;51.140;17.184;2022-07-05T11:50:10;3.62;;;2.87;;
59876;SDS011;45749;51.140;17.184;2022-07-05T11:52:37;4.92;;;3.05;;
59876;SDS011;45749;51.140;17.184;2022-07-05T11:55:05;5.00;;;3.52;;
59876;SDS011;45749;51.140;17.184;2022-07-05T11:57:35;3.58;;;2.90;;
59876;SDS011;45749;51.140;17.184;2022-07-05T12:00:02;3.50;;;2.92;;
59876;SDS011;45749;51.140;17.184;2022-07-05T12:02:30;4.33;;;3.37;;
59876;SDS011;45749;51.140;17.184;2022-07-05T12:04:56;4.72;;;2.58;;
59876;SDS011;45749;51.140;17.184;2022-07-05T12:07:28;4.22;;;2.98;;
59876;SDS011;45749;51.140;17.184;2022-07-05T12:09:53;3.30;;;3.00;;
59876;SDS011;45749;51.140;17.184;2022-07-05T12:12:38;3.08;;;2.87;;
59876;SDS011;45749;51.140;17.184;2022-07-05T12:15:15;3.22;;;2.60;;
59876;SDS011;45749;51.140;17.184;2022-07-05T12:17:40;3.75;;;3.08;;
59876;SDS011;45749;51.140;17.184;2022-07-05T12:20:12;3.40;;;3.10;;
59876;SDS011;45749;51.140;17.184;2022-07-05T12:22:42;4.72;;;3.72;;
59876;SDS011;45749;51.140;17.184;2022-07-05T12:25:12;3.83;;;2.87;;
59876;SDS011;45749;51.140;17.184;2022-07-05T12:27:42;3.23;;;2.93;;
59876;SDS011;45749;51.140;17.184;2022-07-05T12:30:10;2.77;;;2.58;;
59876;SDS011;45749;51.140;17.184;2022-07-05T12:38:05;3.62;;;3.33;;
59876;SDS011;45749;51.140;17.184;2022-07-05T12:40:46;3.65;;;3.35;;
59876;SDS011;45749;51.140;17.184;2022-07-05T12:43:17;3.12;;;2.83;;
59876;SDS011;45749;51.140;17.184;2022-07-05T12:45:58;4.72;;;3.30;;
59876;SDS011;45749;51.140;17.184;2022-07-05T12:48:37;5.80;;;2.90;;
59876;SDS011;45749;51.140;17.184;2022-07-05T12:51:02;4.95;;;3.42;;
59876;SDS011;45749;51.140;17.184;2022-07-05T12:53:29;3.92;;;3.10;;
59876;SDS011;45749;51.140;17.184;2022-07-05T12:56:14;3.00;;;2.77;;
59876;SDS011;45749;51.140;17.184;2022-07-05T12:59:00;3.02;;;2.72;;
59876;SDS011;45749;51.140;17.184;2022-07-05T13:01:32;3.50;;;3.20;;
59876;SDS011;45749;51.140;17.184;2022-07-05T13:04:08;6.03;;;3.37;;
59876;SDS011;45749;51.140;17.184;2022-07-05T13:06:52;3.10;;;2.80;;
59876;SDS011;45749;51.140;17.184;2022-07-05T13:12:06;6.55;;;4.08;;
59876;SDS011;45749;51.140;17.184;2022-07-05T13:14:45;5.75;;;3.40;;
59876;SDS011;45749;51.140;17.184;2022-07-05T13:17:15;4.35;;;3.25;;
59876;SDS011;45749;51.140;17.184;2022-07-05T13:19:48;3.67;;;3.37;;
59876;SDS011;45749;51.140;17.184;2022-07-05T13:22:16;3.98;;;3.22;;
59876;SDS011;45749;51.140;17.184;2022-07-05T13:24:43;3.58;;;3.15;;
59876;SDS011;45749;51.140;17.184;2022-07-05T13:27:10;4.10;;;3.30;;
59876;SDS011;45749;51.140;17.184;2022-07-05T13:29:38;3.83;;;2.80;;
59876;SDS011;45749;51.140;17.184;2022-07-05T13:32:05;3.62;;;2.22;;
59876;SDS011;45749;51.140;17.184;2022-07-05T13:34:31;6.25;;;3.02;;
59876;SDS011;45749;51.140;17.184;2022-07-05T13:36:58;4.25;;;3.50;;
59876;SDS011;45749;51.140;17.184;2022-07-05T13:39:26;3.22;;;2.17;;
59876;SDS011;45749;51.140;17.184;2022-07-05T13:41:54;2.95;;;1.95;;
59876;SDS011;45749;51.140;17.184;2022-07-05T13:44:21;4.05;;;2.10;;
59876;SDS011;45749;51.140;17.184;2022-07-05T13:46:48;1.72;;;1.62;;
59876;SDS011;45749;51.140;17.184;2022-07-05T13:49:14;2.22;;;1.27;;
59876;SDS011;45749;51.140;17.184;2022-07-05T13:51:41;2.67;;;1.55;;
59876;SDS011;45749;51.140;17.184;2022-07-05T13:54:07;2.85;;;1.55;;
59876;SDS011;45749;51.140;17.184;2022-07-05T13:56:33;1.92;;;1.17;;
59876;SDS011;45749;51.140;17.184;2022-07-05T13:59:02;3.70;;;1.47;;
59876;SDS011;45749;51.140;17.184;2022-07-05T14:01:29;2.30;;;1.40;;
59876;SDS011;45749;51.140;17.184;2022-07-05T14:03:56;2.87;;;1.50;;
59876;SDS011;45749;51.140;17.184;2022-07-05T14:06:24;1.85;;;1.45;;
59876;SDS011;45749;51.140;17.184;2022-07-05T14:08:51;1.92;;;1.20;;
59876;SDS011;45749;51.140;17.184;2022-07-05T14:11:17;1.47;;;1.05;;
59876;SDS011;45749;51.140;17.184;2022-07-05T14:13:43;1.42;;;1.22;;
59876;SDS011;45749;51.140;17.184;2022-07-05T14:16:09;3.02;;;1.40;;
59876;SDS011;45749;51.140;17.184;2022-07-05T14:18:35;3.55;;;1.10;;
59876;SDS011;45749;51.140;17.184;2022-07-05T14:21:02;2.10;;;0.93;;
59876;SDS011;45749;51.140;17.184;2022-07-05T14:23:28;5.05;;;1.92;;
59876;SDS011;45749;51.140;17.184;2022-07-05T14:25:54;1.52;;;1.12;;
59876;SDS011;45749;51.140;17.184;2022-07-05T14:28:23;5.33;;;1.40;;
59876;SDS011;45749;51.140;17.184;2022-07-05T14:30:49;2.58;;;1.20;;
59876;SDS011;45749;51.140;17.184;2022-07-05T14:33:15;1.80;;;1.10;;
59876;SDS011;45749;51.140;17.184;2022-07-05T14:35:42;3.80;;;1.30;;
59876;SDS011;45749;51.140;17.184;2022-07-05T14:38:08;1.70;;;1.15;;
59876;SDS011;45749;51.140;17.184;2022-07-05T14:40:35;2.37;;;1.25;;
59876;SDS011;45749;51.140;17.184;2022-07-05T14:43:01;1.65;;;1.02;;
59876;SDS011;45749;51.140;17.184;2022-07-05T14:45:28;1.80;;;1.50;;
59876;SDS011;45749;51.140;17.184;2022-07-05T14:47:54;1.15;;;0.98;;
59876;SDS011;45749;51.140;17.184;2022-07-05T14:50:21;1.30;;;1.00;;
59876;SDS011;45749;51.140;17.184;2022-07-05T14:52:47;1.60;;;1.20;;
59876;SDS011;45749;51.140;17.184;2022-07-05T14:55:15;1.92;;;1.47;;
59876;SDS011;45749;51.140;17.184;2022-07-05T14:57:42;2.45;;;1.20;;
59876;SDS011;45749;51.140;17.184;2022-07-05T15:00:09;1.70;;;1.60;;
59876;SDS011;45749;51.140;17.184;2022-07-05T15:02:38;2.22;;;1.27;;
59876;SDS011;45749;51.140;17.184;2022-07-05T15:05:05;2.22;;;1.20;;
59876;SDS011;45749;51.140;17.184;2022-07-05T15:07:35;0.98;;;0.88;;
59876;SDS011;45749;51.140;17.184;2022-07-05T15:10:01;1.37;;;1.27;;
59876;SDS011;45749;51.140;17.184;2022-07-05T15:12:27;2.72;;;0.85;;
59876;SDS011;45749;51.140;17.184;2022-07-05T15:14:53;1.80;;;1.42;;
59876;SDS011;45749;51.140;17.184;2022-07-05T15:17:19;1.30;;;0.90;;
59876;SDS011;45749;51.140;17.184;2022-07-05T15:19:45;1.05;;;0.95;;
59876;SDS011;45749;51.140;17.184;2022-07-05T15:22:11;3.02;;;1.20;;
59876;SDS011;45749;51.140;17.184;2022-07-05T15:24:37;2.92;;;1.00;;
59876;SDS011;45749;51.140;17.184;2022-07-05T15:27:03;0.82;;;0.82;;
59876;SDS011;45749;51.140;17.184;2022-07-05T15:29:34;1.60;;;0.80;;
59876;SDS011;45749;51.140;17.184;2022-07-05T15:32:02;1.90;;;1.20;;
59876;SDS011;45749;51.140;17.184;2022-07-05T15:34:29;4.83;;;1.67;;